createdAt,value
2018-12-04T00:00:39.869Z,7.43
2018-12-04T00:03:09.782Z,5.37
2018-12-04T00:05:39.741Z,3.70
2018-12-04T00:08:09.651Z,6.53
2018-12-04T00:10:39.806Z,7.03
2018-12-04T00:13:09.765Z,4.87
2018-12-04T00:15:39.732Z,7.07
2018-12-04T00:18:09.662Z,11.13
2018-12-04T00:20:39.593Z,9.60
2018-12-04T00:23:09.512Z,9.83
2018-12-04T00:25:39.494Z,10.60
2018-12-04T00:28:09.445Z,9.23
2018-12-04T00:30:39.447Z,5.20
2018-12-04T00:33:09.501Z,7.80
2018-12-04T00:35:39.437Z,7.60
2018-12-04T00:38:09.443Z,9.30
2018-12-04T00:40:39.415Z,12.63
2018-12-04T00:43:09.350Z,9.63
2018-12-04T00:45:39.429Z,9.43
2018-12-04T00:48:09.347Z,8.07
2018-12-04T00:50:39.294Z,10.70
2018-12-04T00:53:10.883Z,9.40
2018-12-04T00:55:41.640Z,9.33
2018-12-04T00:58:11.788Z,10.50
2018-12-04T01:00:41.757Z,10.37
2018-12-04T01:03:11.698Z,12.53
2018-12-04T01:05:41.682Z,7.40
2018-12-04T01:08:11.603Z,9.67
2018-12-04T01:10:41.561Z,9.43
2018-12-04T01:13:11.486Z,8.27
2018-12-04T01:15:41.440Z,6.67
2018-12-04T01:18:11.389Z,12.83
2018-12-04T01:20:41.325Z,8.93
2018-12-04T01:23:11.243Z,12.00
2018-12-04T01:25:41.193Z,8.37
2018-12-04T01:28:11.108Z,13.53
2018-12-04T01:30:41.066Z,14.87
2018-12-04T01:33:10.989Z,7.37
2018-12-04T01:35:41.051Z,9.30
2018-12-04T01:38:10.949Z,8.83
2018-12-04T01:40:40.908Z,12.40
2018-12-04T01:43:10.918Z,9.80
2018-12-04T01:45:40.989Z,7.50
2018-12-04T01:48:10.915Z,9.90
2018-12-04T01:50:42.171Z,7.90
2018-12-04T01:53:12.194Z,7.93
2018-12-04T01:55:42.168Z,9.20
2018-12-04T01:58:12.110Z,9.43
2018-12-04T02:00:42.055Z,7.23
2018-12-04T02:03:11.968Z,4.70
2018-12-04T02:05:42.164Z,8.40
2018-12-04T02:08:12.148Z,6.40
2018-12-04T02:10:42.107Z,10.33
2018-12-04T02:13:12.046Z,8.00
2018-12-04T02:15:42.013Z,7.10
2018-12-04T02:18:11.916Z,7.60
2018-12-04T02:20:41.894Z,10.03
2018-12-04T02:23:11.815Z,8.63
2018-12-04T02:25:41.767Z,6.77
2018-12-04T02:28:11.677Z,7.63
2018-12-04T02:30:41.614Z,9.90
2018-12-04T02:33:11.540Z,8.60
2018-12-04T02:35:41.527Z,12.43
2018-12-04T02:38:11.473Z,13.87
2018-12-04T02:40:41.424Z,15.63
2018-12-04T02:43:11.365Z,25.47
2018-12-04T02:45:41.305Z,25.97
2018-12-04T02:48:11.217Z,29.30
2018-12-04T02:50:41.167Z,20.73
2018-12-04T02:53:11.111Z,17.73
2018-12-04T02:55:41.080Z,22.30
2018-12-04T02:58:11.098Z,32.47
2018-12-04T03:00:41.056Z,26.40
2018-12-04T03:03:10.971Z,23.60
2018-12-04T03:05:40.922Z,16.10
2018-12-04T03:08:10.868Z,25.13
2018-12-04T03:10:40.803Z,16.37
2018-12-04T03:13:10.737Z,21.10
2018-12-04T03:15:40.757Z,28.80
2018-12-04T03:18:10.673Z,29.63
2018-12-04T03:20:40.628Z,25.33
2018-12-04T03:23:10.518Z,22.23
2018-12-04T03:25:40.511Z,20.03
2018-12-04T03:28:10.442Z,16.63
2018-12-04T03:30:40.442Z,22.77
2018-12-04T03:33:10.462Z,26.07
2018-12-04T03:35:40.385Z,31.33
2018-12-04T03:38:10.380Z,24.63
2018-12-04T03:40:40.357Z,23.93
2018-12-04T03:43:10.293Z,15.17
2018-12-04T03:45:40.232Z,11.97
2018-12-04T03:48:10.299Z,7.83
2018-12-04T03:50:40.223Z,11.57
2018-12-04T03:53:10.182Z,6.80
2018-12-04T03:55:40.108Z,8.60
2018-12-04T03:58:10.104Z,10.27
2018-12-04T04:00:40.144Z,8.53
2018-12-04T04:03:10.069Z,10.90
2018-12-04T04:05:40.034Z,10.17
2018-12-04T04:08:09.933Z,11.13
2018-12-04T04:10:39.907Z,9.50
2018-12-04T04:13:09.842Z,8.33
2018-12-04T04:15:39.961Z,8.70
2018-12-04T04:18:09.920Z,10.23
2018-12-04T04:20:39.880Z,9.13
2018-12-04T04:23:09.926Z,9.73
2018-12-04T04:25:39.879Z,7.27
2018-12-04T04:28:09.870Z,8.53
2018-12-04T04:30:39.819Z,10.27
2018-12-04T04:33:09.760Z,15.87
2018-12-04T04:35:39.681Z,8.80
2018-12-04T04:38:09.589Z,12.23
2018-12-04T04:40:39.533Z,9.33
2018-12-04T04:43:09.451Z,10.20
2018-12-04T04:45:39.385Z,11.53
2018-12-04T04:48:09.310Z,12.33
2018-12-04T04:50:39.236Z,12.80
2018-12-04T04:53:09.161Z,17.27
2018-12-04T04:55:39.203Z,22.43
2018-12-04T04:58:09.211Z,21.80
2018-12-04T05:00:39.148Z,15.73
2018-12-04T05:03:09.405Z,24.10
2018-12-04T05:05:41.604Z,19.50
2018-12-04T05:08:11.501Z,16.80
2018-12-04T05:10:41.427Z,13.33
2018-12-04T05:13:11.355Z,18.30
2018-12-04T05:15:41.377Z,18.57
2018-12-04T05:18:11.336Z,14.23
2018-12-04T05:20:41.372Z,18.77
2018-12-04T05:23:11.287Z,14.33
2018-12-04T05:25:41.232Z,15.57
2018-12-04T05:28:11.398Z,10.23
2018-12-04T05:30:41.339Z,11.27
2018-12-04T05:33:11.230Z,10.67
2018-12-04T05:35:41.160Z,15.17
2018-12-04T05:38:11.069Z,17.13
2018-12-04T05:40:41.030Z,17.67
2018-12-04T05:43:11.287Z,18.23
2018-12-04T05:46:20.449Z,16.93
2018-12-04T05:48:50.173Z,9.37
2018-12-04T05:51:19.887Z,10.93
2018-12-04T05:53:49.557Z,7.87
2018-12-04T05:56:19.436Z,7.03
2018-12-04T05:58:49.184Z,7.60
2018-12-04T06:01:19.366Z,9.40
2018-12-04T06:03:49.124Z,9.90
2018-12-04T06:06:18.852Z,11.10
2018-12-04T06:08:48.652Z,9.73
2018-12-04T06:11:18.513Z,8.10
2018-12-04T06:13:48.284Z,9.73
2018-12-04T06:16:17.962Z,9.43
2018-12-04T06:18:47.845Z,8.20
2018-12-04T06:21:17.535Z,7.10
2018-12-04T06:23:47.469Z,9.77
2018-12-04T06:26:17.764Z,9.43
2018-12-04T06:28:47.576Z,7.77
2018-12-04T06:31:17.557Z,10.87
2018-12-04T06:33:47.358Z,12.47
2018-12-04T06:36:17.172Z,9.10
2018-12-04T06:38:47.078Z,10.53
2018-12-04T06:41:16.841Z,8.73
2018-12-04T06:43:46.693Z,10.07
2018-12-04T06:46:16.465Z,11.03
2018-12-04T06:48:46.482Z,12.17
2018-12-04T06:51:16.161Z,16.57
2018-12-04T06:53:45.873Z,10.70
2018-12-04T06:56:15.725Z,12.60
2018-12-04T06:58:46.015Z,9.53
2018-12-04T07:01:15.908Z,15.23
2018-12-04T07:03:45.655Z,13.47
2018-12-04T07:06:15.588Z,15.80
2018-12-04T07:08:45.521Z,17.37
2018-12-04T07:11:16.625Z,13.27
2018-12-04T07:13:47.633Z,11.67
2018-12-04T07:16:17.604Z,12.37
2018-12-04T07:18:47.892Z,13.10
2018-12-04T07:21:18.079Z,13.90
2018-12-04T07:23:49.581Z,12.70
2018-12-04T07:26:19.242Z,16.80
2018-12-04T07:28:49.033Z,14.00
2018-12-04T07:31:19.140Z,13.53
2018-12-04T07:33:49.188Z,14.37
2018-12-04T07:36:19.961Z,15.53
2018-12-04T07:38:49.801Z,18.03
2018-12-04T07:41:19.639Z,10.33
2018-12-04T07:43:49.741Z,12.10
2018-12-04T07:46:19.464Z,13.43
2018-12-04T07:48:49.241Z,14.93
2018-12-04T07:51:19.220Z,15.43
2018-12-04T07:53:48.984Z,21.10
2018-12-04T07:56:19.507Z,15.17
2018-12-04T07:58:49.340Z,18.43
2018-12-04T08:01:19.235Z,20.10
2018-12-04T08:03:49.104Z,11.27
2018-12-04T08:06:18.849Z,14.13
2018-12-04T08:08:48.840Z,15.00
2018-12-04T08:11:18.738Z,12.10
2018-12-04T08:13:48.643Z,18.27
2018-12-04T08:16:18.489Z,16.20
2018-12-04T08:18:48.211Z,12.03
2018-12-04T08:21:17.948Z,6.90
2018-12-04T08:23:47.675Z,11.03
2018-12-04T08:26:17.589Z,11.30
2018-12-04T08:28:47.353Z,9.50
2018-12-04T08:31:17.341Z,8.83
2018-12-04T08:33:47.160Z,12.93
2018-12-04T08:36:17.051Z,12.33
2018-12-04T08:41:35.753Z,13.70
2018-12-04T08:44:05.659Z,11.60
2018-12-04T08:46:35.425Z,13.30
2018-12-04T08:49:05.529Z,11.10
2018-12-04T08:51:35.346Z,12.67
2018-12-04T08:54:05.718Z,11.97
2018-12-04T08:56:35.839Z,17.20
2018-12-04T08:59:05.851Z,16.53
2018-12-04T09:01:35.629Z,13.90
2018-12-04T09:04:05.748Z,16.70
2018-12-04T09:06:36.427Z,19.73
2018-12-04T09:09:11.343Z,17.77
2018-12-04T09:11:41.021Z,17.33
2018-12-04T09:14:10.921Z,21.30
2018-12-04T09:16:40.719Z,9.40
2018-12-04T09:19:11.096Z,13.60
2018-12-04T09:21:41.199Z,11.30
2018-12-04T09:24:11.002Z,15.90
2018-12-04T09:26:40.911Z,13.20
2018-12-04T09:29:10.733Z,18.50
2018-12-04T09:31:40.553Z,18.07
2018-12-04T09:34:10.286Z,26.47
2018-12-04T09:36:40.092Z,20.53
2018-12-04T09:39:09.975Z,19.33
2018-12-04T09:41:39.837Z,14.60
2018-12-04T09:44:09.501Z,11.07
2018-12-04T09:46:39.228Z,16.93
2018-12-04T09:49:09.199Z,11.77
2018-12-04T09:51:38.954Z,9.47
2018-12-04T09:54:08.779Z,8.77
2018-12-04T09:56:38.621Z,9.57
2018-12-04T09:59:08.562Z,6.23
2018-12-04T10:01:38.413Z,8.47
2018-12-04T10:04:08.353Z,7.10
2018-12-04T10:06:38.262Z,9.83
2018-12-04T10:09:09.666Z,6.43
2018-12-04T10:11:39.868Z,13.40
2018-12-04T10:14:09.705Z,10.50
2018-12-04T10:16:39.602Z,6.70
2018-12-04T10:19:09.315Z,11.30
2018-12-04T10:21:39.579Z,10.27
2018-12-04T10:24:09.595Z,10.23
2018-12-04T10:26:40.230Z,13.67
2018-12-04T10:29:10.166Z,9.07
2018-12-04T10:31:39.951Z,8.93
2018-12-04T10:34:09.748Z,9.07
2018-12-04T10:36:39.714Z,9.73
2018-12-04T10:39:09.846Z,12.80
2018-12-04T10:41:39.849Z,8.33
2018-12-04T10:44:09.660Z,10.93
2018-12-04T10:46:39.549Z,11.97
2018-12-04T10:49:09.265Z,12.30
2018-12-04T10:51:39.182Z,10.07
2018-12-04T10:54:09.552Z,11.43
2018-12-04T10:56:39.337Z,6.57
2018-12-04T10:59:09.203Z,8.00
2018-12-04T11:01:44.167Z,7.80
2018-12-04T11:04:14.096Z,8.50
2018-12-04T11:06:44.452Z,5.27
2018-12-04T11:09:14.296Z,5.77
2018-12-04T11:11:44.700Z,7.50
2018-12-04T11:14:14.462Z,6.47
2018-12-04T11:16:44.158Z,8.63
2018-12-04T11:19:13.904Z,12.57
2018-12-04T11:21:43.749Z,6.03
2018-12-04T11:24:13.724Z,7.03
2018-12-04T11:26:43.558Z,9.17
2018-12-04T11:29:13.451Z,8.83
2018-12-04T11:31:43.643Z,7.50
2018-12-04T11:34:13.662Z,7.30
2018-12-04T11:36:43.498Z,9.50
2018-12-04T11:39:13.424Z,40.93
2018-12-04T11:41:43.459Z,12.90
2018-12-04T11:44:13.265Z,9.80
2018-12-04T11:46:43.076Z,12.67
2018-12-04T11:49:13.032Z,20.83
2018-12-04T11:51:42.911Z,24.00
2018-12-04T11:54:12.820Z,9.03
2018-12-04T11:56:42.613Z,11.07
2018-12-04T11:59:13.296Z,7.27
2018-12-04T12:01:43.710Z,8.93
2018-12-04T12:04:13.506Z,7.70
2018-12-04T12:06:43.304Z,12.83
2018-12-04T12:09:13.034Z,9.80
2018-12-04T12:11:42.837Z,9.27
2018-12-04T12:14:12.535Z,12.07
2018-12-04T12:16:42.231Z,8.30
2018-12-04T12:19:12.009Z,9.73
2018-12-04T12:21:41.796Z,6.50
2018-12-04T12:24:12.283Z,8.40
2018-12-04T12:26:41.974Z,7.70
2018-12-04T12:29:11.813Z,14.20
2018-12-04T12:31:41.536Z,10.10
2018-12-04T12:34:11.240Z,8.57
2018-12-04T12:36:41.490Z,11.77
2018-12-04T12:39:11.252Z,9.73
2018-12-04T12:41:41.259Z,11.50
2018-12-04T12:44:11.116Z,8.57
2018-12-04T12:46:40.993Z,15.93
2018-12-04T12:49:10.856Z,6.20
2018-12-04T12:51:40.727Z,9.87
2018-12-04T12:54:10.456Z,8.43
2018-12-04T12:56:40.379Z,9.93
2018-12-04T12:59:10.042Z,9.67
2018-12-04T13:01:39.805Z,12.17
2018-12-04T13:04:09.621Z,7.93
2018-12-04T13:06:39.469Z,8.63
2018-12-04T13:09:10.075Z,11.73
2018-12-04T13:11:40.865Z,9.57
2018-12-04T13:14:10.606Z,8.83
2018-12-04T13:16:40.536Z,12.43
2018-12-04T13:19:10.427Z,14.03
2018-12-04T13:21:41.077Z,10.37
2018-12-04T13:24:11.145Z,17.63
2018-12-04T13:26:41.260Z,13.03
2018-12-04T13:29:11.109Z,14.77
2018-12-04T13:31:40.794Z,12.23
2018-12-04T13:34:10.651Z,12.33
2018-12-04T13:36:40.780Z,15.53
2018-12-04T13:39:12.157Z,12.67
2018-12-04T13:41:42.075Z,14.63
2018-12-04T13:44:12.247Z,14.73
2018-12-04T13:46:42.028Z,12.17
2018-12-04T13:49:12.019Z,10.50
2018-12-04T13:51:42.009Z,10.47
2018-12-04T13:54:11.727Z,9.93
2018-12-04T13:56:41.774Z,7.87
2018-12-04T13:59:11.526Z,10.23
2018-12-04T14:01:41.541Z,8.57
2018-12-04T14:04:11.483Z,9.60
2018-12-04T14:06:41.269Z,12.00
2018-12-04T14:09:11.074Z,10.17
2018-12-04T14:11:41.005Z,14.43
2018-12-04T14:14:10.689Z,9.83
2018-12-04T14:16:40.545Z,10.80
2018-12-04T14:19:10.317Z,6.33
2018-12-04T14:21:40.220Z,8.07
2018-12-04T14:24:09.967Z,8.23
2018-12-04T14:26:39.787Z,13.77
2018-12-04T14:29:09.654Z,10.97
2018-12-04T14:31:39.554Z,11.50
2018-12-04T14:34:09.529Z,5.50
2018-12-04T14:36:39.252Z,8.37
2018-12-04T14:39:10.884Z,6.20
2018-12-04T14:41:40.946Z,10.00
2018-12-04T14:44:10.748Z,9.63
2018-12-04T14:46:40.469Z,7.43
2018-12-04T14:49:10.387Z,10.30
2018-12-04T14:51:40.220Z,6.97
2018-12-04T14:54:10.123Z,7.03
2018-12-04T14:56:39.989Z,11.63
2018-12-04T14:59:09.684Z,6.60
2018-12-04T15:01:39.402Z,6.40
2018-12-04T15:04:09.322Z,10.80
2018-12-04T15:06:39.390Z,11.43
2018-12-04T15:09:09.587Z,7.37
2018-12-04T15:11:39.313Z,8.23
2018-12-04T15:14:09.386Z,9.87
2018-12-04T15:16:39.718Z,7.27
2018-12-04T15:19:09.459Z,6.50
2018-12-04T15:21:39.633Z,10.63
2018-12-04T15:24:09.304Z,9.10
2018-12-04T15:26:39.391Z,7.07
2018-12-04T15:29:10.147Z,7.13
2018-12-04T15:31:39.989Z,8.00
2018-12-04T15:34:10.818Z,6.07
2018-12-04T15:36:40.646Z,8.07
2018-12-04T15:39:10.735Z,8.53
2018-12-04T15:41:40.979Z,9.87
2018-12-04T15:44:10.762Z,7.67
2018-12-04T15:46:40.601Z,10.50
2018-12-04T15:49:11.295Z,7.33
2018-12-04T15:51:41.577Z,11.60
2018-12-04T15:57:00.261Z,10.27
2018-12-04T15:59:29.942Z,16.67
2018-12-04T16:01:59.710Z,9.40
2018-12-04T16:04:29.374Z,9.73
2018-12-04T16:09:47.008Z,10.53
2018-12-04T16:12:16.785Z,12.10
2018-12-04T16:14:46.521Z,12.37
2018-12-04T16:17:16.258Z,10.23
2018-12-04T16:19:46.092Z,13.60
2018-12-04T16:22:16.108Z,14.73
2018-12-04T16:24:46.998Z,10.20
2018-12-04T16:27:16.812Z,10.10
2018-12-04T16:29:46.575Z,6.40
2018-12-04T16:32:16.566Z,12.20
2018-12-04T16:34:46.254Z,9.13
2018-12-04T16:37:16.145Z,11.30
2018-12-04T16:39:47.020Z,9.97
2018-12-04T16:42:16.770Z,14.97
2018-12-04T16:44:46.442Z,14.27
2018-12-04T16:47:16.510Z,12.70
2018-12-04T16:49:46.309Z,10.43
2018-12-04T16:52:16.144Z,8.30
2018-12-04T16:54:45.980Z,6.93
2018-12-04T16:57:15.734Z,12.20
2018-12-04T16:59:45.480Z,9.13
2018-12-04T17:02:15.564Z,10.73
2018-12-04T17:04:45.326Z,11.33
2018-12-04T17:07:15.036Z,8.43
2018-12-04T17:09:45.357Z,11.60
2018-12-04T17:12:15.261Z,9.17
2018-12-04T17:14:45.034Z,7.93
2018-12-04T17:17:14.909Z,15.07
2018-12-04T17:19:44.868Z,11.83
2018-12-04T17:22:14.731Z,15.60
2018-12-04T17:24:44.557Z,15.67
2018-12-04T17:27:14.476Z,14.80
2018-12-04T17:29:44.420Z,13.07
2018-12-04T17:32:14.809Z,19.70
2018-12-04T17:34:45.539Z,10.30
2018-12-04T17:37:15.612Z,14.23
2018-12-04T17:39:45.482Z,11.07
2018-12-04T17:42:16.262Z,13.10
2018-12-04T17:44:46.194Z,14.37
2018-12-04T17:47:16.268Z,14.07
2018-12-04T17:49:46.700Z,17.77
2018-12-04T17:52:16.636Z,11.03
2018-12-04T17:54:46.619Z,9.50
2018-12-04T17:57:16.602Z,10.73
2018-12-04T17:59:46.769Z,9.83
2018-12-04T18:02:16.755Z,18.83
2018-12-04T18:04:46.512Z,9.03
2018-12-04T18:07:16.932Z,10.60
2018-12-04T18:09:46.777Z,11.50
2018-12-04T18:12:16.630Z,12.53
2018-12-04T18:14:47.316Z,11.07
2018-12-04T18:17:17.470Z,14.23
2018-12-04T18:19:47.249Z,14.20
2018-12-04T18:22:17.689Z,13.80
2018-12-04T18:24:47.491Z,19.63
2018-12-04T18:27:18.213Z,10.60
2018-12-04T18:29:48.078Z,16.47
2018-12-04T18:32:18.429Z,11.17
2018-12-04T18:34:49.298Z,11.80
2018-12-04T18:37:19.403Z,12.33
2018-12-04T18:39:49.261Z,13.37
2018-12-04T18:42:19.308Z,11.73
2018-12-04T18:44:49.239Z,10.73
2018-12-04T18:47:19.581Z,7.40
2018-12-04T18:49:49.542Z,12.10
2018-12-04T18:52:19.995Z,11.40
2018-12-04T18:54:49.881Z,10.73
2018-12-04T18:57:19.742Z,16.33
2018-12-04T18:59:49.634Z,10.93
2018-12-04T19:02:19.669Z,14.03
2018-12-04T19:04:50.695Z,14.63
2018-12-04T19:07:20.562Z,14.30
2018-12-04T19:09:50.558Z,15.43
2018-12-04T19:12:20.325Z,9.67
2018-12-04T19:14:50.830Z,13.60
2018-12-04T19:17:20.723Z,12.33
2018-12-04T19:19:50.652Z,8.57
2018-12-04T19:22:20.646Z,13.10
2018-12-04T19:24:50.441Z,11.83
2018-12-04T19:27:20.908Z,9.30
2018-12-04T19:29:50.961Z,9.90
2018-12-04T19:32:20.716Z,10.00
2018-12-04T19:34:50.725Z,11.83
2018-12-04T19:37:20.627Z,11.10
2018-12-04T19:39:50.418Z,15.87
2018-12-04T19:42:20.140Z,14.77
2018-12-04T19:44:50.121Z,9.73
2018-12-04T19:47:20.020Z,13.27
2018-12-04T19:49:49.945Z,13.77
2018-12-04T19:52:19.629Z,12.83
2018-12-04T19:54:49.467Z,14.17
2018-12-04T19:57:19.216Z,12.47
2018-12-04T19:59:48.900Z,13.13
2018-12-04T20:02:19.480Z,17.60
2018-12-04T20:04:49.424Z,14.83
2018-12-04T20:07:19.446Z,15.77
2018-12-04T20:09:49.371Z,13.30
2018-12-04T20:12:19.181Z,12.97
2018-12-04T20:14:49.569Z,11.23
2018-12-04T20:20:09.342Z,11.10
2018-12-04T20:22:39.411Z,11.50
2018-12-04T20:25:09.895Z,11.23
2018-12-04T20:27:39.858Z,10.47
2018-12-04T20:30:10.070Z,13.30
2018-12-04T20:32:40.005Z,9.90
2018-12-04T20:35:09.493Z,10.30
2018-12-04T20:37:39.246Z,11.60
2018-12-04T20:40:09.224Z,14.00
2018-12-04T20:42:39.935Z,9.03
2018-12-04T20:45:09.875Z,8.87
2018-12-04T20:47:39.567Z,10.80
2018-12-04T20:50:09.564Z,10.00
2018-12-04T20:52:39.363Z,11.70
2018-12-04T20:55:09.307Z,14.07
2018-12-04T20:57:39.960Z,11.57
2018-12-04T21:00:12.764Z,10.83
2018-12-04T21:02:42.998Z,11.00
2018-12-04T21:05:13.147Z,15.60
2018-12-04T21:07:43.067Z,18.13
2018-12-04T21:10:13.146Z,16.53
2018-12-04T21:12:42.872Z,14.60
2018-12-04T21:15:12.571Z,13.57
2018-12-04T21:17:42.614Z,13.60
2018-12-04T21:20:12.544Z,11.80
2018-12-04T21:22:42.302Z,15.40
2018-12-04T21:25:11.960Z,13.93
2018-12-04T21:27:46.862Z,15.37
2018-12-04T21:30:21.626Z,17.43
2018-12-04T21:32:56.741Z,11.30
2018-12-04T21:35:31.705Z,10.07
2018-12-04T21:38:06.674Z,11.43
2018-12-04T21:40:41.508Z,9.03
2018-12-04T21:43:16.370Z,11.53
2018-12-04T21:45:51.303Z,11.83
2018-12-04T21:48:23.048Z,14.00
2018-12-04T21:50:52.819Z,12.63
2018-12-04T21:53:22.672Z,11.63
2018-12-04T21:55:52.487Z,12.80
2018-12-04T21:58:22.894Z,13.37
2018-12-04T22:00:52.592Z,14.13
2018-12-04T22:03:22.377Z,10.37
2018-12-04T22:05:52.379Z,12.10
2018-12-04T22:08:22.322Z,10.90
2018-12-04T22:10:52.037Z,12.20
2018-12-04T22:13:21.884Z,13.30
2018-12-04T22:15:51.612Z,9.33
2018-12-04T22:18:21.272Z,15.83
2018-12-04T22:20:51.123Z,11.40
2018-12-04T22:23:20.882Z,14.77
2018-12-04T22:25:50.738Z,14.73
2018-12-04T22:28:20.625Z,11.33
2018-12-04T22:30:51.037Z,9.60
2018-12-04T22:33:20.699Z,16.10
2018-12-04T22:35:50.355Z,14.53
2018-12-04T22:38:20.244Z,13.70
2018-12-04T22:40:50.000Z,15.07
2018-12-04T22:43:19.705Z,15.67
2018-12-04T22:45:49.528Z,17.43
2018-12-04T22:48:19.422Z,10.60
2018-12-04T22:50:49.164Z,12.87
2018-12-04T22:53:18.841Z,11.53
2018-12-04T22:55:48.599Z,13.97
2018-12-04T22:58:18.383Z,11.57
2018-12-04T23:00:50.548Z,13.67
2018-12-04T23:03:20.385Z,12.67
2018-12-04T23:05:50.299Z,14.80
2018-12-04T23:08:20.075Z,13.20
2018-12-04T23:10:49.982Z,13.30
2018-12-04T23:13:19.925Z,9.80
2018-12-04T23:15:49.748Z,10.80
2018-12-04T23:18:20.137Z,12.47
2018-12-04T23:20:50.213Z,10.33
2018-12-04T23:23:20.937Z,15.03
2018-12-04T23:25:51.213Z,11.80
2018-12-04T23:28:20.956Z,15.60
2018-12-04T23:30:50.708Z,12.50
2018-12-04T23:33:20.580Z,10.33
2018-12-04T23:35:50.559Z,15.37
2018-12-04T23:38:20.294Z,9.53
2018-12-04T23:40:50.133Z,12.63
2018-12-04T23:43:20.080Z,12.87
2018-12-04T23:45:49.868Z,15.37
2018-12-04T23:48:19.868Z,11.53
2018-12-04T23:50:49.640Z,13.47
2018-12-04T23:53:19.313Z,15.57
2018-12-04T23:55:49.281Z,10.23
2018-12-04T23:58:19.139Z,14.07
